createdAt,value
2022-07-25T00:01:22.113Z,99.90
2022-07-25T00:03:51.730Z,99.90
2022-07-25T00:06:19.988Z,99.90
2022-07-25T00:08:47.969Z,99.90
2022-07-25T00:11:16.102Z,99.90
2022-07-25T00:13:44.116Z,99.90
2022-07-25T00:16:13.646Z,99.90
2022-07-25T00:18:42.145Z,99.90
2022-07-25T00:21:10.385Z,99.90
2022-07-25T00:23:38.443Z,99.90
2022-07-25T00:26:06.870Z,99.90
2022-07-25T00:28:35.061Z,99.90
2022-07-25T00:31:03.345Z,99.90
2022-07-25T00:33:33.018Z,99.90
2022-07-25T00:36:01.278Z,99.90
2022-07-25T00:38:29.354Z,99.90
2022-07-25T00:40:57.335Z,99.90
2022-07-25T00:43:25.390Z,99.90
2022-07-25T00:45:53.414Z,99.90
2022-07-25T00:48:21.493Z,99.90
2022-07-25T00:50:50.886Z,99.90
2022-07-25T00:53:19.906Z,99.90
2022-07-25T00:55:48.779Z,99.90
2022-07-25T00:58:18.808Z,99.90
2022-07-25T01:00:47.159Z,99.90
2022-07-25T01:03:16.273Z,99.90
2022-07-25T01:05:50.225Z,99.90
2022-07-25T01:08:23.450Z,99.90
2022-07-25T01:10:51.756Z,99.90
2022-07-25T01:13:19.829Z,99.90
2022-07-25T01:15:49.159Z,99.90
2022-07-25T01:18:17.310Z,99.90
2022-07-25T01:20:47.206Z,99.90
2022-07-25T01:23:15.280Z,99.90
2022-07-25T01:25:43.545Z,99.90
2022-07-25T01:28:11.677Z,99.90
2022-07-25T01:30:39.930Z,99.90
2022-07-25T01:33:08.039Z,99.90
2022-07-25T01:35:41.501Z,99.90
2022-07-25T01:38:13.704Z,99.90
2022-07-25T01:40:42.941Z,99.90
2022-07-25T01:43:12.255Z,99.90
2022-07-25T01:45:40.354Z,99.90
2022-07-25T01:48:09.122Z,99.90
2022-07-25T01:50:37.222Z,99.90
2022-07-25T01:53:05.581Z,99.90
2022-07-25T01:55:34.988Z,99.90
2022-07-25T01:58:03.156Z,99.90
2022-07-25T02:00:31.316Z,99.90
2022-07-25T02:03:28.472Z,99.90
2022-07-25T02:05:56.575Z,99.90
2022-07-25T02:08:24.786Z,99.90
2022-07-25T02:10:54.388Z,99.90
2022-07-25T02:13:22.733Z,99.90
2022-07-25T02:15:51.187Z,99.90
2022-07-25T02:18:19.274Z,99.90
2022-07-25T02:20:47.749Z,99.90
2022-07-25T02:23:15.795Z,99.90
2022-07-25T02:25:44.125Z,99.90
2022-07-25T02:28:13.824Z,99.90
2022-07-25T02:30:41.885Z,99.90
2022-07-25T02:33:10.006Z,99.90
2022-07-25T02:35:37.994Z,99.90
2022-07-25T02:38:06.044Z,99.90
2022-07-25T02:40:34.421Z,99.90
2022-07-25T02:43:02.649Z,99.90
2022-07-25T02:45:32.077Z,99.90
2022-07-25T02:48:02.346Z,99.90
2022-07-25T02:50:30.371Z,99.90
2022-07-25T02:52:58.430Z,99.90
2022-07-25T02:55:26.656Z,99.90
2022-07-25T02:57:54.852Z,99.90
2022-07-25T03:00:23.945Z,99.90
2022-07-25T03:02:53.393Z,99.90
2022-07-25T03:05:21.701Z,99.90
2022-07-25T03:07:49.737Z,99.90
2022-07-25T03:10:17.914Z,99.90
2022-07-25T03:12:46.806Z,99.90
2022-07-25T03:15:15.693Z,99.90
2022-07-25T03:17:43.988Z,99.90
2022-07-25T03:20:14.178Z,99.90
2022-07-25T03:22:42.313Z,99.90
2022-07-25T03:25:15.603Z,99.90
2022-07-25T03:27:50.648Z,99.90
2022-07-25T03:30:18.913Z,99.90
2022-07-25T03:32:47.736Z,99.90
2022-07-25T03:35:17.158Z,99.90
2022-07-25T03:37:45.557Z,99.90
2022-07-25T03:40:15.392Z,99.90
2022-07-25T03:42:44.429Z,99.90
2022-07-25T03:45:12.768Z,99.90
2022-07-25T03:47:40.836Z,99.90
2022-07-25T03:50:09.995Z,99.90
2022-07-25T03:52:39.488Z,99.90
2022-07-25T03:55:09.486Z,99.90
2022-07-25T03:57:37.645Z,99.90
2022-07-25T04:00:09.528Z,99.90
2022-07-25T04:02:38.490Z,99.90
2022-07-25T04:05:08.838Z,99.90
2022-07-25T04:07:39.216Z,99.90
2022-07-25T04:10:10.113Z,99.90
2022-07-25T04:12:38.908Z,99.90
2022-07-25T04:15:08.421Z,99.90
2022-07-25T04:17:37.916Z,99.90
2022-07-25T04:20:09.079Z,99.90
2022-07-25T04:22:37.039Z,99.90
2022-07-25T04:27:35.811Z,99.90
2022-07-25T04:30:04.024Z,99.90
2022-07-25T04:32:32.008Z,99.90
2022-07-25T04:34:59.960Z,99.90
2022-07-25T04:37:28.085Z,99.90
2022-07-25T04:39:56.134Z,99.90
2022-07-25T04:42:25.438Z,99.90
2022-07-25T04:44:53.447Z,99.90
2022-07-25T04:47:21.420Z,99.90
2022-07-25T04:49:49.424Z,99.90
2022-07-25T04:52:17.395Z,99.90
2022-07-25T04:54:45.394Z,99.90
2022-07-25T04:57:13.410Z,99.90
2022-07-25T04:59:44.236Z,99.90
2022-07-25T05:02:12.400Z,99.90
2022-07-25T05:04:45.161Z,99.90
2022-07-25T05:07:13.629Z,99.90
2022-07-25T05:09:41.740Z,99.90
2022-07-25T05:12:10.410Z,99.90
2022-07-25T05:14:38.558Z,99.90
2022-07-25T05:17:08.076Z,99.90
2022-07-25T05:19:36.126Z,99.90
2022-07-25T05:22:05.345Z,99.90
2022-07-25T05:24:35.030Z,99.90
2022-07-25T05:27:04.081Z,99.90
2022-07-25T05:29:32.901Z,99.90
2022-07-25T05:32:01.136Z,99.90
2022-07-25T05:34:30.543Z,99.90
2022-07-25T05:36:58.567Z,99.90
2022-07-25T05:39:26.596Z,99.90
2022-07-25T05:41:54.656Z,99.90
2022-07-25T05:44:22.747Z,99.90
2022-07-25T05:46:50.782Z,99.90
2022-07-25T05:49:18.830Z,99.90
2022-07-25T05:51:48.188Z,99.90
2022-07-25T05:54:16.344Z,99.90
2022-07-25T05:56:44.414Z,99.90
2022-07-25T05:59:12.431Z,99.90
2022-07-25T06:01:40.535Z,99.90
2022-07-25T06:04:09.107Z,99.90
2022-07-25T06:06:37.380Z,99.90
2022-07-25T06:09:07.973Z,99.90
2022-07-25T06:11:36.301Z,99.90
2022-07-25T06:14:19.414Z,99.90
2022-07-25T06:16:47.929Z,99.90
2022-07-25T06:19:16.090Z,99.90
2022-07-25T06:21:44.109Z,99.90
2022-07-25T06:24:13.485Z,99.90
2022-07-25T06:26:41.601Z,99.90
2022-07-25T06:29:09.757Z,99.90
2022-07-25T06:31:37.803Z,99.90
2022-07-25T06:34:06.164Z,99.90
2022-07-25T06:36:34.366Z,99.90
2022-07-25T06:39:03.274Z,99.90
2022-07-25T06:41:32.595Z,99.90
2022-07-25T06:44:00.642Z,99.90
2022-07-25T06:46:31.351Z,99.90
2022-07-25T06:48:59.673Z,99.90
2022-07-25T06:51:27.770Z,99.90
2022-07-25T06:53:56.653Z,99.90
2022-07-25T06:56:24.722Z,99.90
2022-07-25T06:58:54.655Z,99.90
2022-07-25T07:01:22.656Z,99.90
2022-07-25T07:03:50.883Z,99.90
2022-07-25T07:06:19.022Z,99.90
2022-07-25T07:08:47.028Z,99.90
2022-07-25T07:11:16.692Z,99.90
2022-07-25T07:13:44.864Z,99.90
2022-07-25T07:16:14.523Z,99.90
2022-07-25T07:18:45.809Z,99.90
2022-07-25T07:21:21.489Z,99.90
2022-07-25T07:23:53.619Z,99.90
2022-07-25T07:26:22.405Z,99.90
2022-07-25T07:28:50.554Z,99.90
2022-07-25T07:31:20.187Z,99.90
2022-07-25T07:33:48.261Z,99.90
2022-07-25T07:36:16.274Z,99.90
2022-07-25T07:38:45.174Z,99.90
2022-07-25T07:41:13.744Z,99.90
2022-07-25T07:43:41.808Z,99.90
2022-07-25T07:46:09.912Z,99.90
2022-07-25T07:48:39.795Z,99.90
2022-07-25T07:51:08.146Z,99.90
2022-07-25T07:53:53.764Z,99.90
2022-07-25T07:56:21.802Z,99.90
2022-07-25T07:58:50.485Z,99.90
2022-07-25T08:01:19.244Z,99.90
2022-07-25T08:03:48.655Z,99.90
2022-07-25T08:06:16.748Z,99.90
2022-07-25T08:08:44.788Z,99.90
2022-07-25T08:11:13.022Z,99.90
2022-07-25T08:13:41.091Z,99.90
2022-07-25T08:16:11.751Z,99.90
2022-07-25T08:18:39.821Z,99.90
2022-07-25T08:21:09.246Z,99.90
2022-07-25T08:23:39.215Z,99.90
2022-07-25T08:26:08.123Z,99.90
2022-07-25T08:28:36.180Z,99.90
2022-07-25T08:31:04.465Z,99.90
2022-07-25T08:33:32.629Z,99.90
2022-07-25T08:36:01.154Z,99.90
2022-07-25T08:38:30.866Z,99.90
2022-07-25T08:40:59.796Z,99.90
2022-07-25T08:43:29.260Z,99.90
2022-07-25T08:45:57.342Z,99.90
2022-07-25T08:48:27.728Z,99.90
2022-07-25T08:50:58.090Z,99.90
2022-07-25T08:53:33.046Z,99.90
2022-07-25T08:56:10.396Z,99.90
2022-07-25T08:58:41.770Z,99.90
2022-07-25T09:01:12.561Z,99.90
2022-07-25T09:03:40.697Z,99.90
2022-07-25T09:06:17.797Z,99.90
2022-07-25T09:08:57.837Z,99.90
2022-07-25T09:11:35.687Z,99.90
2022-07-25T09:14:08.906Z,99.90
2022-07-25T09:16:41.012Z,99.90
2022-07-25T09:19:15.083Z,99.90
2022-07-25T09:21:46.128Z,99.90
2022-07-25T09:24:17.854Z,99.90
2022-07-25T09:26:50.076Z,99.90
2022-07-25T09:29:24.684Z,99.90
2022-07-25T09:31:54.916Z,99.90
2022-07-25T09:34:38.804Z,99.90
2022-07-25T09:37:09.248Z,99.90
2022-07-25T09:39:46.316Z,99.90
2022-07-25T09:42:26.691Z,99.90
2022-07-25T09:45:15.961Z,99.90
2022-07-25T09:47:56.406Z,99.90
2022-07-25T09:50:27.181Z,99.90
2022-07-25T09:53:02.446Z,99.90
2022-07-25T09:55:32.797Z,99.90
2022-07-25T09:58:02.232Z,99.90
2022-07-25T10:00:32.572Z,99.90
2022-07-25T10:03:18.593Z,99.90
2022-07-25T10:06:08.919Z,99.90
2022-07-25T10:08:40.047Z,99.90
2022-07-25T10:11:21.202Z,99.90
2022-07-25T10:13:51.204Z,99.90
2022-07-25T10:16:22.579Z,99.90
2022-07-25T10:18:53.761Z,99.80
2022-07-25T10:21:26.909Z,99.70
2022-07-25T10:24:02.335Z,98.80
2022-07-25T10:26:31.504Z,98.60
2022-07-25T10:29:02.093Z,98.50
2022-07-25T10:31:38.412Z,99.10
2022-07-25T10:34:10.638Z,98.60
2022-07-25T10:36:46.719Z,99.00
2022-07-25T10:39:17.002Z,98.50
2022-07-25T10:41:52.342Z,98.50
2022-07-25T10:44:22.542Z,99.20
2022-07-25T10:46:50.626Z,98.70
2022-07-25T10:49:29.070Z,98.40
2022-07-25T10:52:03.107Z,98.10
2022-07-25T10:54:36.556Z,97.40
2022-07-25T10:57:07.203Z,97.80
2022-07-25T10:59:39.777Z,96.90
2022-07-25T11:02:16.277Z,96.70
2022-07-25T11:04:45.827Z,96.70
2022-07-25T11:07:17.674Z,96.50
2022-07-25T11:09:56.553Z,96.10
2022-07-25T11:12:25.006Z,96.30
2022-07-25T11:15:02.200Z,96.20
2022-07-25T11:17:30.609Z,95.50
2022-07-25T11:20:01.355Z,95.40
2022-07-25T11:22:31.994Z,95.30
2022-07-25T11:25:01.291Z,95.20
2022-07-25T11:27:32.084Z,95.20
2022-07-25T11:30:09.881Z,95.10
2022-07-25T11:32:43.181Z,95.20
2022-07-25T11:35:13.063Z,95.10
2022-07-25T11:37:44.677Z,94.90
2022-07-25T11:40:16.257Z,94.40
2022-07-25T11:42:47.525Z,94.60
2022-07-25T11:45:22.163Z,94.70
2022-07-25T11:48:03.397Z,94.90
2022-07-25T11:50:33.578Z,95.00
2022-07-25T11:53:03.171Z,94.50
2022-07-25T11:55:36.314Z,94.90
2022-07-25T11:58:06.912Z,94.60
2022-07-25T12:00:44.876Z,94.80
2022-07-25T12:03:19.393Z,94.50
2022-07-25T12:05:49.748Z,94.80
2022-07-25T12:08:20.640Z,93.90
2022-07-25T12:10:51.299Z,94.00
2022-07-25T12:13:24.979Z,93.70
2022-07-25T12:15:55.116Z,93.70
2022-07-25T12:18:23.256Z,93.60
2022-07-25T12:20:51.288Z,93.60
2022-07-25T12:23:21.653Z,93.80
2022-07-25T12:25:49.885Z,93.40
2022-07-25T12:28:18.055Z,93.50
2022-07-25T12:30:54.375Z,93.40
2022-07-25T12:33:25.886Z,93.40
2022-07-25T12:35:54.053Z,93.40
2022-07-25T12:38:22.093Z,93.20
2022-07-25T12:40:50.415Z,92.90
2022-07-25T12:43:19.073Z,92.80
2022-07-25T12:45:47.225Z,93.50
2022-07-25T12:48:16.006Z,93.20
2022-07-25T12:50:46.133Z,92.80
2022-07-25T12:53:14.487Z,92.60
2022-07-25T12:55:42.577Z,92.70
2022-07-25T12:58:11.493Z,92.70
2022-07-25T13:00:39.581Z,92.60
2022-07-25T13:03:07.630Z,92.40
2022-07-25T13:05:35.703Z,92.20
2022-07-25T13:08:07.360Z,92.00
2022-07-25T13:10:35.328Z,91.90
2022-07-25T13:13:03.677Z,91.30
2022-07-25T13:15:31.715Z,91.10
2022-07-25T13:17:59.763Z,90.70
2022-07-25T13:20:28.509Z,90.90
2022-07-25T13:22:56.691Z,90.60
2022-07-25T13:25:26.071Z,90.30
2022-07-25T13:27:54.225Z,90.50
2022-07-25T13:30:22.394Z,90.10
2022-07-25T13:32:50.384Z,90.70
2022-07-25T13:35:20.755Z,90.50
2022-07-25T13:37:49.593Z,90.50
2022-07-25T13:40:17.778Z,90.80
2022-07-25T13:42:48.379Z,90.70
2022-07-25T13:45:16.540Z,90.00
2022-07-25T13:47:44.568Z,90.30
2022-07-25T13:50:12.745Z,90.30
2022-07-25T13:52:40.827Z,90.20
2022-07-25T13:55:10.374Z,89.60
2022-07-25T13:57:38.431Z,89.80
2022-07-25T14:00:09.988Z,90.10
2022-07-25T14:02:38.163Z,89.60
2022-07-25T14:05:07.157Z,89.70
2022-07-25T14:07:36.826Z,89.60
2022-07-25T14:10:08.342Z,88.30
2022-07-25T14:12:39.402Z,89.00
2022-07-25T14:15:10.698Z,89.00
2022-07-25T14:17:39.217Z,88.60
2022-07-25T14:20:09.417Z,88.10
2022-07-25T14:22:38.454Z,88.80
2022-07-25T14:25:07.559Z,88.90
2022-07-25T14:27:36.193Z,89.20
2022-07-25T14:30:04.857Z,90.00
2022-07-25T14:32:34.732Z,89.70
2022-07-25T14:35:02.977Z,89.30
2022-07-25T14:37:31.640Z,88.00
2022-07-25T14:39:59.870Z,88.20
2022-07-25T14:42:28.234Z,87.10
2022-07-25T14:44:56.380Z,88.00
2022-07-25T14:47:26.677Z,88.80
2022-07-25T14:49:56.792Z,88.90
2022-07-25T14:52:24.837Z,89.10
2022-07-25T14:54:52.974Z,90.00
2022-07-25T14:57:21.035Z,89.50
2022-07-25T14:59:49.066Z,89.50
2022-07-25T15:02:17.105Z,90.10
2022-07-25T15:04:45.155Z,90.40
2022-07-25T15:07:14.629Z,90.70
2022-07-25T15:09:42.738Z,90.80
2022-07-25T15:12:16.142Z,90.90
2022-07-25T15:14:44.613Z,91.00
2022-07-25T15:17:13.791Z,91.00
2022-07-25T15:19:41.891Z,91.30
2022-07-25T15:22:09.989Z,91.30
2022-07-25T15:25:16.850Z,91.10
2022-07-25T15:27:27.971Z,91.20
2022-07-25T15:29:55.970Z,91.10
2022-07-25T15:32:23.992Z,91.50
2022-07-25T15:34:52.047Z,91.60
2022-07-25T15:37:20.288Z,91.40
2022-07-25T15:39:49.705Z,91.30
2022-07-25T15:42:17.926Z,91.20
2022-07-25T15:44:45.941Z,91.40
2022-07-25T15:47:14.591Z,91.60
2022-07-25T15:49:43.411Z,91.20
2022-07-25T15:52:11.442Z,91.00
2022-07-25T15:54:39.502Z,91.40
2022-07-25T15:57:08.953Z,91.30
2022-07-25T15:59:37.360Z,91.00
2022-07-25T16:02:09.345Z,91.10
2022-07-25T16:04:37.370Z,91.20
2022-07-25T16:07:05.484Z,91.90
2022-07-25T16:09:33.626Z,91.60
2022-07-25T16:12:02.066Z,92.00
2022-07-25T16:14:31.467Z,92.20
2022-07-25T16:16:59.486Z,92.50
2022-07-25T16:19:27.524Z,92.70
2022-07-25T16:21:57.155Z,92.70
2022-07-25T16:24:25.643Z,93.00
2022-07-25T16:26:53.974Z,95.40
2022-07-25T16:29:21.988Z,99.50
2022-07-25T16:31:51.642Z,99.90
2022-07-25T16:34:19.682Z,99.90
2022-07-25T16:36:47.709Z,99.90
2022-07-25T16:39:16.020Z,99.90
2022-07-25T16:41:45.450Z,99.90
2022-07-25T16:44:13.420Z,99.90
2022-07-25T16:46:42.351Z,99.90
2022-07-25T16:49:13.387Z,99.90
2022-07-25T16:51:41.530Z,99.90
2022-07-25T16:54:09.579Z,99.90
2022-07-25T16:56:37.778Z,99.90
2022-07-25T16:59:07.423Z,99.90
2022-07-25T17:01:36.598Z,99.90
2022-07-25T17:04:05.534Z,99.90
2022-07-25T17:06:35.012Z,99.90
2022-07-25T17:09:03.119Z,99.90
2022-07-25T17:11:31.235Z,99.90
2022-07-25T17:14:00.500Z,99.90
2022-07-25T17:16:28.711Z,99.90
2022-07-25T17:18:56.955Z,99.90
2022-07-25T17:21:25.061Z,99.90
2022-07-25T17:23:56.443Z,99.90
2022-07-25T17:26:24.707Z,99.90
2022-07-25T17:28:53.587Z,99.90
2022-07-25T17:31:21.836Z,99.90
2022-07-25T17:33:49.842Z,99.90
2022-07-25T17:36:20.287Z,99.90
2022-07-25T17:38:48.350Z,99.90
2022-07-25T17:41:18.058Z,99.90
2022-07-25T17:43:46.062Z,99.90
2022-07-25T17:46:14.200Z,99.90
2022-07-25T17:48:42.885Z,99.90
2022-07-25T17:51:10.911Z,99.90
2022-07-25T17:53:39.134Z,99.90
2022-07-25T17:56:08.766Z,99.90
2022-07-25T17:58:38.531Z,99.90
2022-07-25T18:01:10.294Z,99.90
2022-07-25T18:03:39.218Z,99.90
2022-07-25T18:06:07.385Z,99.90
2022-07-25T18:08:35.994Z,99.90
2022-07-25T18:11:04.353Z,99.90
2022-07-25T18:13:32.356Z,99.90
2022-07-25T18:16:02.030Z,99.90
2022-07-25T18:18:31.582Z,99.90
2022-07-25T18:20:59.730Z,99.90
2022-07-25T18:23:28.747Z,99.90
2022-07-25T18:25:57.133Z,99.90
2022-07-25T18:28:25.413Z,99.90
2022-07-25T18:30:54.997Z,99.90
2022-07-25T18:33:25.536Z,99.90
2022-07-25T18:35:53.721Z,99.90
2022-07-25T18:38:21.756Z,99.90
2022-07-25T18:41:06.526Z,99.90
2022-07-25T18:43:37.865Z,99.90
2022-07-25T18:46:06.209Z,99.90
2022-07-25T18:48:37.526Z,99.90
2022-07-25T18:51:05.756Z,99.90
2022-07-25T18:53:33.944Z,99.90
2022-07-25T18:56:03.216Z,99.90
2022-07-25T18:58:31.344Z,99.90
2022-07-25T19:00:59.476Z,99.90
2022-07-25T19:03:27.701Z,99.90
2022-07-25T19:06:02.827Z,99.90
2022-07-25T19:08:33.279Z,99.90
2022-07-25T19:11:01.458Z,99.90
2022-07-25T19:16:17.802Z,99.90
2022-07-25T19:18:46.175Z,99.90
2022-07-25T19:21:16.707Z,99.90
2022-07-25T19:23:50.551Z,99.90
2022-07-25T19:26:20.346Z,99.90
2022-07-25T19:28:48.524Z,99.90
2022-07-25T19:31:16.722Z,99.90
2022-07-25T19:33:46.029Z,99.90
2022-07-25T19:36:15.540Z,99.90
2022-07-25T19:38:43.793Z,99.90
2022-07-25T19:41:11.902Z,99.90
2022-07-25T19:43:40.033Z,99.90
2022-07-25T19:46:08.060Z,99.90
2022-07-25T19:48:36.206Z,99.90
2022-07-25T19:51:04.386Z,99.90
2022-07-25T19:53:33.978Z,99.90
2022-07-25T19:56:02.095Z,99.90
2022-07-25T19:58:31.484Z,99.90
2022-07-25T20:01:01.279Z,99.90
2022-07-25T20:03:30.428Z,99.90
2022-07-25T20:05:58.689Z,99.90
2022-07-25T20:08:26.751Z,99.90
2022-07-25T20:10:56.168Z,99.90
2022-07-25T20:13:24.201Z,99.90
2022-07-25T20:15:52.209Z,99.90
2022-07-25T20:18:20.277Z,99.90
2022-07-25T20:20:48.432Z,99.90
2022-07-25T20:23:16.739Z,99.90
2022-07-25T20:25:44.865Z,99.90
2022-07-25T20:28:14.259Z,99.90
2022-07-25T20:30:42.694Z,99.90
2022-07-25T20:33:11.368Z,99.90
2022-07-25T20:35:39.833Z,99.90
2022-07-25T20:38:09.281Z,99.90
2022-07-25T20:40:43.855Z,99.90
2022-07-25T20:43:17.736Z,99.90
2022-07-25T20:45:47.470Z,99.90
2022-07-25T20:48:16.050Z,99.90
2022-07-25T20:50:44.822Z,99.90
2022-07-25T20:53:13.333Z,99.90
2022-07-25T20:55:41.305Z,99.90
2022-07-25T20:58:09.352Z,99.90
2022-07-25T21:00:38.777Z,99.90
2022-07-25T21:03:08.245Z,99.90
2022-07-25T21:05:39.325Z,99.90
2022-07-25T21:08:08.048Z,99.90
2022-07-25T21:10:36.147Z,99.90
2022-07-25T21:13:04.171Z,99.90
2022-07-25T21:15:32.494Z,99.90
2022-07-25T21:18:02.504Z,99.90
2022-07-25T21:20:30.765Z,99.90
2022-07-25T21:22:58.908Z,99.90
2022-07-25T21:25:27.246Z,99.90
2022-07-25T21:27:55.252Z,99.90
2022-07-25T21:30:23.282Z,99.90
2022-07-25T21:32:51.330Z,99.90
2022-07-25T21:35:20.680Z,99.90
2022-07-25T21:37:48.719Z,99.90
2022-07-25T21:40:16.922Z,99.90
2022-07-25T21:42:45.244Z,99.90
2022-07-25T21:45:14.150Z,99.90
2022-07-25T21:47:42.235Z,99.90
2022-07-25T21:50:29.078Z,99.90
2022-07-25T21:52:58.764Z,99.90
2022-07-25T21:55:27.001Z,99.90
2022-07-25T21:57:55.166Z,99.90
2022-07-25T22:00:23.448Z,99.90
2022-07-25T22:02:51.848Z,99.90
2022-07-25T22:05:20.612Z,99.90
2022-07-25T22:07:49.685Z,99.90
2022-07-25T22:10:22.115Z,99.90
2022-07-25T22:12:50.569Z,99.90
2022-07-25T22:15:18.743Z,99.90
2022-07-25T22:17:49.068Z,99.90
2022-07-25T22:20:18.995Z,99.90
2022-07-25T22:22:47.616Z,99.90
2022-07-25T22:25:18.379Z,99.90
2022-07-25T22:27:46.566Z,99.90
2022-07-25T22:30:19.231Z,99.90
2022-07-25T22:32:48.434Z,99.90
2022-07-25T22:35:16.728Z,99.90
2022-07-25T22:37:45.284Z,99.90
2022-07-25T22:40:14.636Z,99.90
2022-07-25T22:42:44.325Z,99.90
2022-07-25T22:45:12.852Z,99.90
2022-07-25T22:47:40.953Z,99.90
2022-07-25T22:50:11.009Z,99.90
2022-07-25T22:52:39.195Z,99.90
2022-07-25T22:55:08.317Z,99.90
2022-07-25T22:57:37.757Z,99.90
2022-07-25T23:00:12.535Z,99.90
2022-07-25T23:02:41.280Z,99.90
2022-07-25T23:05:10.822Z,99.90
2022-07-25T23:07:39.240Z,99.90
2022-07-25T23:10:08.959Z,99.90
2022-07-25T23:12:37.111Z,99.90
2022-07-25T23:15:08.418Z,99.90
2022-07-25T23:17:36.472Z,99.90
2022-07-25T23:20:06.790Z,99.90
2022-07-25T23:22:34.940Z,99.90
2022-07-25T23:25:03.178Z,99.90
2022-07-25T23:27:33.239Z,99.90
2022-07-25T23:30:04.387Z,99.90
2022-07-25T23:32:34.448Z,99.90
2022-07-25T23:35:02.821Z,99.90
2022-07-25T23:37:30.911Z,99.90
2022-07-25T23:39:58.955Z,99.90
2022-07-25T23:42:27.074Z,99.90
2022-07-25T23:44:57.507Z,99.90
2022-07-25T23:47:39.411Z,99.90
2022-07-25T23:50:12.467Z,99.90
2022-07-25T23:52:40.873Z,99.90
2022-07-25T23:55:10.587Z,99.90
2022-07-25T23:57:38.911Z,99.90
